sensor_id;sensor_type;location;lat;lon;timestamp;P1;durP1;ratioP1;P2;durP2;ratioP2
50575;SDS011;76633;45.642;12.198;2024-03-17T00:01:45;50.97;;;45.45;;
50575;SDS011;76633;45.642;12.198;2024-03-17T00:04:11;58.70;;;46.92;;
50575;SDS011;76633;45.642;12.198;2024-03-17T00:06:36;56.10;;;46.95;;
50575;SDS011;76633;45.642;12.198;2024-03-17T00:09:02;55.33;;;45.88;;
50575;SDS011;76633;45.642;12.198;2024-03-17T00:11:31;50.33;;;43.55;;
50575;SDS011;76633;45.642;12.198;2024-03-17T00:13:58;54.30;;;47.65;;
50575;SDS011;76633;45.642;12.198;2024-03-17T00:16:23;51.55;;;45.85;;
50575;SDS011;76633;45.642;12.198;2024-03-17T00:18:49;50.47;;;43.75;;
50575;SDS011;76633;45.642;12.198;2024-03-17T00:21:14;51.17;;;45.47;;
50575;SDS011;76633;45.642;12.198;2024-03-17T00:23:40;61.10;;;47.75;;
50575;SDS011;76633;45.642;12.198;2024-03-17T00:26:06;53.83;;;45.45;;
50575;SDS011;76633;45.642;12.198;2024-03-17T00:28:33;50.72;;;44.45;;
50575;SDS011;76633;45.642;12.198;2024-03-17T00:30:58;48.25;;;42.83;;
50575;SDS011;76633;45.642;12.198;2024-03-17T00:33:24;51.75;;;42.60;;
50575;SDS011;76633;45.642;12.198;2024-03-17T00:35:50;51.10;;;44.75;;
50575;SDS011;76633;45.642;12.198;2024-03-17T00:38:16;56.97;;;45.63;;
50575;SDS011;76633;45.642;12.198;2024-03-17T00:40:41;54.50;;;45.20;;
50575;SDS011;76633;45.642;12.198;2024-03-17T00:43:07;51.58;;;44.17;;
50575;SDS011;76633;45.642;12.198;2024-03-17T00:45:33;48.28;;;42.45;;
50575;SDS011;76633;45.642;12.198;2024-03-17T00:47:59;49.63;;;44.25;;
50575;SDS011;76633;45.642;12.198;2024-03-17T00:50:25;49.45;;;43.28;;
50575;SDS011;76633;45.642;12.198;2024-03-17T00:52:50;53.38;;;42.50;;
50575;SDS011;76633;45.642;12.198;2024-03-17T00:55:16;47.80;;;42.00;;
50575;SDS011;76633;45.642;12.198;2024-03-17T00:57:42;47.95;;;42.72;;
50575;SDS011;76633;45.642;12.198;2024-03-17T01:00:07;53.22;;;44.47;;
50575;SDS011;76633;45.642;12.198;2024-03-17T01:02:37;47.08;;;41.45;;
50575;SDS011;76633;45.642;12.198;2024-03-17T01:05:03;49.28;;;42.75;;
50575;SDS011;76633;45.642;12.198;2024-03-17T01:07:32;50.60;;;42.88;;
50575;SDS011;76633;45.642;12.198;2024-03-17T01:09:58;46.15;;;41.08;;
50575;SDS011;76633;45.642;12.198;2024-03-17T01:12:23;49.83;;;43.28;;
50575;SDS011;76633;45.642;12.198;2024-03-17T01:14:50;50.85;;;42.92;;
50575;SDS011;76633;45.642;12.198;2024-03-17T01:17:15;49.08;;;41.13;;
50575;SDS011;76633;45.642;12.198;2024-03-17T01:19:44;52.28;;;43.83;;
50575;SDS011;76633;45.642;12.198;2024-03-17T01:22:09;49.50;;;42.42;;
50575;SDS011;76633;45.642;12.198;2024-03-17T01:24:35;48.42;;;42.40;;
50575;SDS011;76633;45.642;12.198;2024-03-17T01:27:02;52.15;;;41.72;;
50575;SDS011;76633;45.642;12.198;2024-03-17T01:29:28;50.17;;;41.38;;
50575;SDS011;76633;45.642;12.198;2024-03-17T01:31:53;49.35;;;41.25;;
50575;SDS011;76633;45.642;12.198;2024-03-17T01:34:22;47.97;;;39.05;;
50575;SDS011;76633;45.642;12.198;2024-03-17T01:36:47;49.97;;;38.45;;
50575;SDS011;76633;45.642;12.198;2024-03-17T01:39:13;44.88;;;37.10;;
50575;SDS011;76633;45.642;12.198;2024-03-17T01:41:40;43.80;;;37.60;;
50575;SDS011;76633;45.642;12.198;2024-03-17T01:44:06;44.30;;;38.85;;
50575;SDS011;76633;45.642;12.198;2024-03-17T01:46:32;49.13;;;40.17;;
50575;SDS011;76633;45.642;12.198;2024-03-17T01:48:58;48.33;;;41.05;;
50575;SDS011;76633;45.642;12.198;2024-03-17T01:51:24;48.38;;;39.83;;
50575;SDS011;76633;45.642;12.198;2024-03-17T01:53:50;45.85;;;40.17;;
50575;SDS011;76633;45.642;12.198;2024-03-17T01:56:16;48.92;;;43.40;;
50575;SDS011;76633;45.642;12.198;2024-03-17T01:58:45;52.92;;;42.70;;
50575;SDS011;76633;45.642;12.198;2024-03-17T02:01:11;60.08;;;42.67;;
50575;SDS011;76633;45.642;12.198;2024-03-17T02:03:40;50.90;;;43.50;;
50575;SDS011;76633;45.642;12.198;2024-03-17T02:06:07;54.20;;;46.20;;
50575;SDS011;76633;45.642;12.198;2024-03-17T02:08:50;63.95;;;46.72;;
50575;SDS011;76633;45.642;12.198;2024-03-17T02:11:24;59.05;;;48.42;;
50575;SDS011;76633;45.642;12.198;2024-03-17T02:13:54;58.80;;;50.42;;
50575;SDS011;76633;45.642;12.198;2024-03-17T02:16:21;56.80;;;50.63;;
50575;SDS011;76633;45.642;12.198;2024-03-17T02:18:53;56.42;;;50.38;;
50575;SDS011;76633;45.642;12.198;2024-03-17T02:21:20;53.70;;;47.88;;
50575;SDS011;76633;45.642;12.198;2024-03-17T02:23:50;54.70;;;47.53;;
50575;SDS011;76633;45.642;12.198;2024-03-17T02:26:16;59.30;;;48.15;;
50575;SDS011;76633;45.642;12.198;2024-03-17T02:28:44;55.55;;;49.58;;
50575;SDS011;76633;45.642;12.198;2024-03-17T02:31:11;51.38;;;45.47;;
50575;SDS011;76633;45.642;12.198;2024-03-17T02:33:38;55.75;;;46.40;;
50575;SDS011;76633;45.642;12.198;2024-03-17T02:36:04;50.85;;;44.92;;
50575;SDS011;76633;45.642;12.198;2024-03-17T02:38:32;56.28;;;48.15;;
50575;SDS011;76633;45.642;12.198;2024-03-17T02:41:17;53.38;;;47.67;;
50575;SDS011;76633;45.642;12.198;2024-03-17T02:43:43;58.47;;;51.35;;
50575;SDS011;76633;45.642;12.198;2024-03-17T02:46:11;59.85;;;50.05;;
50575;SDS011;76633;45.642;12.198;2024-03-17T02:48:38;57.60;;;51.42;;
50575;SDS011;76633;45.642;12.198;2024-03-17T02:51:09;65.75;;;54.72;;
50575;SDS011;76633;45.642;12.198;2024-03-17T02:53:36;61.78;;;52.25;;
50575;SDS011;76633;45.642;12.198;2024-03-17T02:56:02;57.22;;;51.03;;
50575;SDS011;76633;45.642;12.198;2024-03-17T02:58:27;59.08;;;52.08;;
50575;SDS011;76633;45.642;12.198;2024-03-17T03:00:53;61.90;;;53.65;;
50575;SDS011;76633;45.642;12.198;2024-03-17T03:03:19;59.33;;;52.85;;
50575;SDS011;76633;45.642;12.198;2024-03-17T03:05:45;60.38;;;53.88;;
50575;SDS011;76633;45.642;12.198;2024-03-17T03:08:11;60.08;;;53.50;;
50575;SDS011;76633;45.642;12.198;2024-03-17T03:10:36;58.85;;;52.13;;
50575;SDS011;76633;45.642;12.198;2024-03-17T03:13:02;64.03;;;56.47;;
50575;SDS011;76633;45.642;12.198;2024-03-17T03:15:30;61.28;;;54.08;;
50575;SDS011;76633;45.642;12.198;2024-03-17T03:17:57;64.15;;;57.40;;
50575;SDS011;76633;45.642;12.198;2024-03-17T03:20:23;66.85;;;58.85;;
50575;SDS011;76633;45.642;12.198;2024-03-17T03:22:49;75.00;;;62.30;;
50575;SDS011;76633;45.642;12.198;2024-03-17T03:25:14;66.18;;;58.83;;
50575;SDS011;76633;45.642;12.198;2024-03-17T03:27:40;65.65;;;58.25;;
50575;SDS011;76633;45.642;12.198;2024-03-17T03:30:06;65.35;;;57.03;;
50575;SDS011;76633;45.642;12.198;2024-03-17T03:32:33;65.80;;;54.60;;
50575;SDS011;76633;45.642;12.198;2024-03-17T03:34:59;59.38;;;53.03;;
50575;SDS011;76633;45.642;12.198;2024-03-17T03:37:25;61.70;;;55.20;;
50575;SDS011;76633;45.642;12.198;2024-03-17T03:39:51;59.65;;;53.33;;
50575;SDS011;76633;45.642;12.198;2024-03-17T03:42:16;59.22;;;51.13;;
50575;SDS011;76633;45.642;12.198;2024-03-17T03:44:42;55.50;;;49.58;;
50575;SDS011;76633;45.642;12.198;2024-03-17T03:47:08;57.70;;;51.45;;
50575;SDS011;76633;45.642;12.198;2024-03-17T03:49:34;58.85;;;52.42;;
50575;SDS011;76633;45.642;12.198;2024-03-17T03:51:59;58.58;;;52.17;;
50575;SDS011;76633;45.642;12.198;2024-03-17T03:54:25;62.55;;;52.38;;
50575;SDS011;76633;45.642;12.198;2024-03-17T03:56:51;60.38;;;54.08;;
50575;SDS011;76633;45.642;12.198;2024-03-17T03:59:16;59.90;;;53.53;;
50575;SDS011;76633;45.642;12.198;2024-03-17T04:01:42;66.82;;;58.13;;
50575;SDS011;76633;45.642;12.198;2024-03-17T04:04:08;66.57;;;59.08;;
50575;SDS011;76633;45.642;12.198;2024-03-17T04:06:34;69.32;;;61.78;;
50575;SDS011;76633;45.642;12.198;2024-03-17T04:09:02;71.53;;;62.20;;
50575;SDS011;76633;45.642;12.198;2024-03-17T04:11:30;74.45;;;62.17;;
50575;SDS011;76633;45.642;12.198;2024-03-17T04:13:58;74.30;;;64.95;;
50575;SDS011;76633;45.642;12.198;2024-03-17T04:16:25;77.28;;;65.53;;
50575;SDS011;76633;45.642;12.198;2024-03-17T04:18:51;70.85;;;62.38;;
50575;SDS011;76633;45.642;12.198;2024-03-17T04:21:17;70.45;;;62.58;;
50575;SDS011;76633;45.642;12.198;2024-03-17T04:23:43;79.32;;;66.03;;
50575;SDS011;76633;45.642;12.198;2024-03-17T04:26:09;77.07;;;64.65;;
50575;SDS011;76633;45.642;12.198;2024-03-17T04:28:34;72.57;;;64.70;;
50575;SDS011;76633;45.642;12.198;2024-03-17T04:31:07;75.85;;;67.60;;
50575;SDS011;76633;45.642;12.198;2024-03-17T04:33:33;75.53;;;67.20;;
50575;SDS011;76633;45.642;12.198;2024-03-17T04:35:59;76.47;;;66.32;;
50575;SDS011;76633;45.642;12.198;2024-03-17T04:38:27;75.85;;;65.55;;
50575;SDS011;76633;45.642;12.198;2024-03-17T04:40:53;72.15;;;63.80;;
50575;SDS011;76633;45.642;12.198;2024-03-17T04:43:29;74.20;;;62.88;;
50575;SDS011;76633;45.642;12.198;2024-03-17T04:46:03;73.10;;;61.28;;
50575;SDS011;76633;45.642;12.198;2024-03-17T04:48:31;69.32;;;61.78;;
50575;SDS011;76633;45.642;12.198;2024-03-17T04:50:57;66.85;;;59.60;;
50575;SDS011;76633;45.642;12.198;2024-03-17T04:53:24;66.00;;;59.00;;
50575;SDS011;76633;45.642;12.198;2024-03-17T04:56:00;74.55;;;66.05;;
50575;SDS011;76633;45.642;12.198;2024-03-17T04:58:32;72.38;;;63.35;;
50575;SDS011;76633;45.642;12.198;2024-03-17T05:01:08;78.03;;;64.43;;
50575;SDS011;76633;45.642;12.198;2024-03-17T05:03:34;68.00;;;60.50;;
50575;SDS011;76633;45.642;12.198;2024-03-17T05:06:00;74.25;;;64.68;;
50575;SDS011;76633;45.642;12.198;2024-03-17T05:08:28;72.05;;;61.90;;
50575;SDS011;76633;45.642;12.198;2024-03-17T05:10:58;75.90;;;67.57;;
50575;SDS011;76633;45.642;12.198;2024-03-17T05:13:25;73.13;;;64.15;;
50575;SDS011;76633;45.642;12.198;2024-03-17T05:15:52;77.50;;;65.72;;
50575;SDS011;76633;45.642;12.198;2024-03-17T05:18:18;73.43;;;64.13;;
50575;SDS011;76633;45.642;12.198;2024-03-17T05:20:45;77.13;;;65.57;;
50575;SDS011;76633;45.642;12.198;2024-03-17T05:23:12;77.05;;;68.57;;
50575;SDS011;76633;45.642;12.198;2024-03-17T05:25:38;76.72;;;67.25;;
50575;SDS011;76633;45.642;12.198;2024-03-17T05:28:04;78.13;;;69.45;;
50575;SDS011;76633;45.642;12.198;2024-03-17T05:30:30;78.07;;;67.85;;
50575;SDS011;76633;45.642;12.198;2024-03-17T05:32:56;78.13;;;67.20;;
50575;SDS011;76633;45.642;12.198;2024-03-17T05:35:21;76.10;;;65.85;;
50575;SDS011;76633;45.642;12.198;2024-03-17T05:37:48;81.40;;;69.15;;
50575;SDS011;76633;45.642;12.198;2024-03-17T05:40:14;77.13;;;68.65;;
50575;SDS011;76633;45.642;12.198;2024-03-17T05:42:43;73.60;;;65.25;;
50575;SDS011;76633;45.642;12.198;2024-03-17T05:45:09;77.38;;;69.05;;
50575;SDS011;76633;45.642;12.198;2024-03-17T05:47:38;76.90;;;67.65;;
50575;SDS011;76633;45.642;12.198;2024-03-17T05:50:06;77.57;;;68.53;;
50575;SDS011;76633;45.642;12.198;2024-03-17T05:52:32;76.95;;;68.63;;
50575;SDS011;76633;45.642;12.198;2024-03-17T05:54:57;76.43;;;67.93;;
50575;SDS011;76633;45.642;12.198;2024-03-17T05:57:23;73.10;;;64.93;;
50575;SDS011;76633;45.642;12.198;2024-03-17T05:59:49;77.38;;;68.60;;
50575;SDS011;76633;45.642;12.198;2024-03-17T06:02:15;75.00;;;67.00;;
50575;SDS011;76633;45.642;12.198;2024-03-17T06:04:41;80.10;;;71.22;;
50575;SDS011;76633;45.642;12.198;2024-03-17T06:07:07;77.85;;;68.32;;
50575;SDS011;76633;45.642;12.198;2024-03-17T06:09:32;73.20;;;65.30;;
50575;SDS011;76633;45.642;12.198;2024-03-17T06:11:58;73.93;;;65.97;;
50575;SDS011;76633;45.642;12.198;2024-03-17T06:14:24;73.70;;;65.35;;
50575;SDS011;76633;45.642;12.198;2024-03-17T06:16:49;76.13;;;67.28;;
50575;SDS011;76633;45.642;12.198;2024-03-17T06:19:15;77.75;;;66.38;;
50575;SDS011;76633;45.642;12.198;2024-03-17T06:21:41;79.70;;;69.82;;
50575;SDS011;76633;45.642;12.198;2024-03-17T06:24:07;76.63;;;66.82;;
50575;SDS011;76633;45.642;12.198;2024-03-17T06:26:32;76.13;;;66.45;;
50575;SDS011;76633;45.642;12.198;2024-03-17T06:29:02;77.68;;;69.07;;
50575;SDS011;76633;45.642;12.198;2024-03-17T06:31:28;80.55;;;71.55;;
50575;SDS011;76633;45.642;12.198;2024-03-17T06:33:53;79.47;;;70.88;;
50575;SDS011;76633;45.642;12.198;2024-03-17T06:36:19;75.70;;;65.45;;
50575;SDS011;76633;45.642;12.198;2024-03-17T06:38:45;72.18;;;64.07;;
50575;SDS011;76633;45.642;12.198;2024-03-17T06:41:10;79.30;;;68.53;;
50575;SDS011;76633;45.642;12.198;2024-03-17T06:43:37;76.22;;;68.13;;
50575;SDS011;76633;45.642;12.198;2024-03-17T06:46:04;77.03;;;68.30;;
50575;SDS011;76633;45.642;12.198;2024-03-17T06:48:30;75.90;;;67.72;;
50575;SDS011;76633;45.642;12.198;2024-03-17T06:50:55;76.68;;;68.38;;
50575;SDS011;76633;45.642;12.198;2024-03-17T06:53:21;76.28;;;68.00;;
50575;SDS011;76633;45.642;12.198;2024-03-17T06:55:54;73.30;;;64.80;;
50575;SDS011;76633;45.642;12.198;2024-03-17T06:58:21;72.43;;;64.53;;
50575;SDS011;76633;45.642;12.198;2024-03-17T07:00:57;71.32;;;63.80;;
50575;SDS011;76633;45.642;12.198;2024-03-17T07:03:27;71.22;;;62.80;;
50575;SDS011;76633;45.642;12.198;2024-03-17T07:05:54;74.18;;;65.93;;
50575;SDS011;76633;45.642;12.198;2024-03-17T07:08:24;73.40;;;65.35;;
50575;SDS011;76633;45.642;12.198;2024-03-17T07:11:06;70.57;;;62.88;;
50575;SDS011;76633;45.642;12.198;2024-03-17T07:13:33;71.13;;;63.43;;
50575;SDS011;76633;45.642;12.198;2024-03-17T07:16:01;73.80;;;65.95;;
50575;SDS011;76633;45.642;12.198;2024-03-17T07:18:28;68.72;;;61.25;;
50575;SDS011;76633;45.642;12.198;2024-03-17T07:20:58;68.85;;;61.38;;
50575;SDS011;76633;45.642;12.198;2024-03-17T07:23:25;69.00;;;61.50;;
50575;SDS011;76633;45.642;12.198;2024-03-17T07:26:00;68.07;;;60.83;;
50575;SDS011;76633;45.642;12.198;2024-03-17T07:28:26;69.13;;;61.97;;
50575;SDS011;76633;45.642;12.198;2024-03-17T07:30:53;65.85;;;58.95;;
50575;SDS011;76633;45.642;12.198;2024-03-17T07:33:21;69.28;;;59.90;;
50575;SDS011;76633;45.642;12.198;2024-03-17T07:38:16;67.15;;;59.90;;
50575;SDS011;76633;45.642;12.198;2024-03-17T07:40:42;65.85;;;57.47;;
50575;SDS011;76633;45.642;12.198;2024-03-17T07:43:09;65.72;;;58.53;;
50575;SDS011;76633;45.642;12.198;2024-03-17T07:45:34;64.22;;;57.50;;
50575;SDS011;76633;45.642;12.198;2024-03-17T07:48:00;67.07;;;59.78;;
50575;SDS011;76633;45.642;12.198;2024-03-17T07:50:26;65.80;;;58.58;;
50575;SDS011;76633;45.642;12.198;2024-03-17T07:52:52;60.90;;;54.58;;
50575;SDS011;76633;45.642;12.198;2024-03-17T07:55:17;69.22;;;57.72;;
50575;SDS011;76633;45.642;12.198;2024-03-17T07:57:43;64.68;;;57.58;;
50575;SDS011;76633;45.642;12.198;2024-03-17T08:00:09;65.03;;;57.80;;
50575;SDS011;76633;45.642;12.198;2024-03-17T08:02:47;66.40;;;57.85;;
50575;SDS011;76633;45.642;12.198;2024-03-17T08:05:13;65.82;;;58.63;;
50575;SDS011;76633;45.642;12.198;2024-03-17T08:07:39;67.47;;;57.17;;
50575;SDS011;76633;45.642;12.198;2024-03-17T08:10:07;65.85;;;57.15;;
50575;SDS011;76633;45.642;12.198;2024-03-17T08:12:33;65.03;;;57.33;;
50575;SDS011;76633;45.642;12.198;2024-03-17T08:14:58;66.25;;;58.38;;
50575;SDS011;76633;45.642;12.198;2024-03-17T08:17:24;68.03;;;59.55;;
50575;SDS011;76633;45.642;12.198;2024-03-17T08:19:50;64.85;;;57.78;;
50575;SDS011;76633;45.642;12.198;2024-03-17T08:22:16;63.45;;;56.13;;
50575;SDS011;76633;45.642;12.198;2024-03-17T08:24:42;62.38;;;55.58;;
50575;SDS011;76633;45.642;12.198;2024-03-17T08:27:08;63.17;;;56.13;;
50575;SDS011;76633;45.642;12.198;2024-03-17T08:29:34;64.20;;;56.30;;
50575;SDS011;76633;45.642;12.198;2024-03-17T08:32:00;60.20;;;53.90;;
50575;SDS011;76633;45.642;12.198;2024-03-17T08:34:25;60.42;;;54.00;;
50575;SDS011;76633;45.642;12.198;2024-03-17T08:36:52;60.55;;;54.30;;
50575;SDS011;76633;45.642;12.198;2024-03-17T08:39:18;61.08;;;54.38;;
50575;SDS011;76633;45.642;12.198;2024-03-17T08:41:44;59.75;;;53.50;;
50575;SDS011;76633;45.642;12.198;2024-03-17T08:44:10;61.70;;;55.17;;
50575;SDS011;76633;45.642;12.198;2024-03-17T08:46:36;61.00;;;54.53;;
50575;SDS011;76633;45.642;12.198;2024-03-17T08:49:02;65.57;;;58.20;;
50575;SDS011;76633;45.642;12.198;2024-03-17T08:51:28;66.03;;;57.40;;
50575;SDS011;76633;45.642;12.198;2024-03-17T08:53:54;64.43;;;57.30;;
50575;SDS011;76633;45.642;12.198;2024-03-17T08:56:19;63.40;;;56.13;;
50575;SDS011;76633;45.642;12.198;2024-03-17T08:58:46;63.15;;;56.25;;
50575;SDS011;76633;45.642;12.198;2024-03-17T09:01:11;63.70;;;56.70;;
50575;SDS011;76633;45.642;12.198;2024-03-17T09:03:39;61.85;;;55.03;;
50575;SDS011;76633;45.642;12.198;2024-03-17T09:06:13;63.75;;;56.78;;
50575;SDS011;76633;45.642;12.198;2024-03-17T09:08:41;63.58;;;55.90;;
50575;SDS011;76633;45.642;12.198;2024-03-17T09:11:08;61.25;;;54.38;;
50575;SDS011;76633;45.642;12.198;2024-03-17T09:13:37;61.15;;;54.70;;
50575;SDS011;76633;45.642;12.198;2024-03-17T09:16:03;60.40;;;54.00;;
50575;SDS011;76633;45.642;12.198;2024-03-17T09:18:29;62.20;;;55.65;;
50575;SDS011;76633;45.642;12.198;2024-03-17T09:20:59;59.83;;;53.58;;
50575;SDS011;76633;45.642;12.198;2024-03-17T09:23:29;60.60;;;54.28;;
50575;SDS011;76633;45.642;12.198;2024-03-17T09:28:22;61.47;;;54.88;;
50575;SDS011;76633;45.642;12.198;2024-03-17T09:30:48;59.40;;;53.25;;
50575;SDS011;76633;45.642;12.198;2024-03-17T09:33:14;60.28;;;54.28;;
50575;SDS011;76633;45.642;12.198;2024-03-17T09:35:40;56.90;;;51.13;;
50575;SDS011;76633;45.642;12.198;2024-03-17T09:38:06;56.63;;;50.90;;
50575;SDS011;76633;45.642;12.198;2024-03-17T09:40:31;58.40;;;52.55;;
50575;SDS011;76633;45.642;12.198;2024-03-17T09:42:57;58.47;;;52.78;;
50575;SDS011;76633;45.642;12.198;2024-03-17T09:45:24;55.88;;;50.50;;
50575;SDS011;76633;45.642;12.198;2024-03-17T09:47:51;56.88;;;51.33;;
50575;SDS011;76633;45.642;12.198;2024-03-17T09:50:17;52.45;;;47.35;;
50575;SDS011;76633;45.642;12.198;2024-03-17T09:52:44;54.05;;;48.53;;
50575;SDS011;76633;45.642;12.198;2024-03-17T09:55:16;53.65;;;48.63;;
50575;SDS011;76633;45.642;12.198;2024-03-17T09:57:44;52.92;;;47.67;;
50575;SDS011;76633;45.642;12.198;2024-03-17T10:00:12;51.17;;;46.33;;
50575;SDS011;76633;45.642;12.198;2024-03-17T10:02:45;52.13;;;47.15;;
50575;SDS011;76633;45.642;12.198;2024-03-17T10:05:18;49.72;;;45.03;;
50575;SDS011;76633;45.642;12.198;2024-03-17T10:07:49;51.75;;;47.08;;
50575;SDS011;76633;45.642;12.198;2024-03-17T10:10:18;53.00;;;48.20;;
50575;SDS011;76633;45.642;12.198;2024-03-17T10:12:49;53.53;;;48.70;;
50575;SDS011;76633;45.642;12.198;2024-03-17T10:17:44;54.15;;;49.30;;
50575;SDS011;76633;45.642;12.198;2024-03-17T10:23:02;53.45;;;48.05;;
50575;SDS011;76633;45.642;12.198;2024-03-17T10:25:29;52.15;;;47.33;;
50575;SDS011;76633;45.642;12.198;2024-03-17T10:28:00;52.00;;;47.13;;
50575;SDS011;76633;45.642;12.198;2024-03-17T10:30:26;51.30;;;46.70;;
50575;SDS011;76633;45.642;12.198;2024-03-17T10:32:57;53.08;;;48.20;;
50575;SDS011;76633;45.642;12.198;2024-03-17T10:37:57;50.47;;;46.13;;
50575;SDS011;76633;45.642;12.198;2024-03-17T10:40:27;54.08;;;49.22;;
50575;SDS011;76633;45.642;12.198;2024-03-17T10:43:04;52.15;;;47.63;;
50575;SDS011;76633;45.642;12.198;2024-03-17T10:45:30;53.67;;;48.88;;
50575;SDS011;76633;45.642;12.198;2024-03-17T10:48:07;53.95;;;49.15;;
50575;SDS011;76633;45.642;12.198;2024-03-17T10:50:37;52.65;;;48.08;;
50575;SDS011;76633;45.642;12.198;2024-03-17T10:53:05;51.15;;;46.47;;
50575;SDS011;76633;45.642;12.198;2024-03-17T10:58:17;51.83;;;47.10;;
50575;SDS011;76633;45.642;12.198;2024-03-17T11:00:58;52.50;;;47.80;;
50575;SDS011;76633;45.642;12.198;2024-03-17T11:03:28;50.00;;;45.40;;
50575;SDS011;76633;45.642;12.198;2024-03-17T11:05:58;52.55;;;47.80;;
50575;SDS011;76633;45.642;12.198;2024-03-17T11:08:29;50.55;;;45.90;;
50575;SDS011;76633;45.642;12.198;2024-03-17T11:10:56;49.25;;;44.78;;
50575;SDS011;76633;45.642;12.198;2024-03-17T11:13:23;50.38;;;45.83;;
50575;SDS011;76633;45.642;12.198;2024-03-17T11:15:52;48.50;;;44.05;;
50575;SDS011;76633;45.642;12.198;2024-03-17T11:26:02;50.90;;;46.20;;
50575;SDS011;76633;45.642;12.198;2024-03-17T11:33:57;50.80;;;45.97;;
50575;SDS011;76633;45.642;12.198;2024-03-17T11:36:33;51.88;;;47.17;;
50575;SDS011;76633;45.642;12.198;2024-03-17T11:41:41;50.28;;;45.67;;
50575;SDS011;76633;45.642;12.198;2024-03-17T11:49:27;52.83;;;48.00;;
50575;SDS011;76633;45.642;12.198;2024-03-17T11:51:55;51.75;;;46.78;;
50575;SDS011;76633;45.642;12.198;2024-03-17T11:54:29;54.30;;;49.28;;
50575;SDS011;76633;45.642;12.198;2024-03-17T11:59:32;55.53;;;50.28;;
50575;SDS011;76633;45.642;12.198;2024-03-17T12:01:58;54.65;;;49.38;;
50575;SDS011;76633;45.642;12.198;2024-03-17T12:04:24;52.63;;;47.95;;
50575;SDS011;76633;45.642;12.198;2024-03-17T12:09:23;52.58;;;47.50;;
50575;SDS011;76633;45.642;12.198;2024-03-17T12:12:05;54.20;;;49.05;;
50575;SDS011;76633;45.642;12.198;2024-03-17T12:14:33;54.67;;;49.38;;
50575;SDS011;76633;45.642;12.198;2024-03-17T12:17:02;58.08;;;52.47;;
50575;SDS011;76633;45.642;12.198;2024-03-17T12:19:32;54.42;;;48.60;;
50575;SDS011;76633;45.642;12.198;2024-03-17T12:21:59;54.60;;;49.38;;
50575;SDS011;76633;45.642;12.198;2024-03-17T12:24:26;55.15;;;49.92;;
50575;SDS011;76633;45.642;12.198;2024-03-17T12:26:53;54.97;;;49.60;;
50575;SDS011;76633;45.642;12.198;2024-03-17T12:32:15;55.38;;;49.92;;
50575;SDS011;76633;45.642;12.198;2024-03-17T12:34:47;54.03;;;48.58;;
50575;SDS011;76633;45.642;12.198;2024-03-17T12:37:21;53.63;;;48.40;;
50575;SDS011;76633;45.642;12.198;2024-03-17T12:39:48;51.00;;;45.60;;
50575;SDS011;76633;45.642;12.198;2024-03-17T12:42:15;53.13;;;47.80;;
50575;SDS011;76633;45.642;12.198;2024-03-17T12:44:59;52.92;;;47.55;;
50575;SDS011;76633;45.642;12.198;2024-03-17T12:47:31;51.33;;;46.30;;
50575;SDS011;76633;45.642;12.198;2024-03-17T12:50:00;47.25;;;42.33;;
50575;SDS011;76633;45.642;12.198;2024-03-17T12:52:31;48.50;;;43.50;;
50575;SDS011;76633;45.642;12.198;2024-03-17T12:55:01;47.53;;;42.70;;
50575;SDS011;76633;45.642;12.198;2024-03-17T13:00:46;37.53;;;33.78;;
50575;SDS011;76633;45.642;12.198;2024-03-17T13:03:32;36.17;;;32.38;;
50575;SDS011;76633;45.642;12.198;2024-03-17T13:06:02;34.17;;;30.50;;
50575;SDS011;76633;45.642;12.198;2024-03-17T13:08:34;32.75;;;29.27;;
50575;SDS011;76633;45.642;12.198;2024-03-17T13:11:00;32.30;;;29.05;;
50575;SDS011;76633;45.642;12.198;2024-03-17T13:13:29;30.50;;;27.52;;
50575;SDS011;76633;45.642;12.198;2024-03-17T13:15:55;34.13;;;30.10;;
50575;SDS011;76633;45.642;12.198;2024-03-17T13:18:20;33.97;;;30.13;;
50575;SDS011;76633;45.642;12.198;2024-03-17T13:20:47;32.38;;;28.98;;
50575;SDS011;76633;45.642;12.198;2024-03-17T13:23:14;31.83;;;28.67;;
50575;SDS011;76633;45.642;12.198;2024-03-17T13:25:40;30.63;;;27.40;;
50575;SDS011;76633;45.642;12.198;2024-03-17T13:28:08;31.40;;;28.20;;
50575;SDS011;76633;45.642;12.198;2024-03-17T13:30:35;31.10;;;28.00;;
50575;SDS011;76633;45.642;12.198;2024-03-17T13:33:04;30.65;;;27.45;;
50575;SDS011;76633;45.642;12.198;2024-03-17T13:35:34;28.35;;;25.42;;
50575;SDS011;76633;45.642;12.198;2024-03-17T13:38:03;29.08;;;26.00;;
50575;SDS011;76633;45.642;12.198;2024-03-17T13:40:29;30.02;;;26.92;;
50575;SDS011;76633;45.642;12.198;2024-03-17T13:42:55;28.80;;;25.85;;
50575;SDS011;76633;45.642;12.198;2024-03-17T13:45:22;34.28;;;30.85;;
50575;SDS011;76633;45.642;12.198;2024-03-17T13:48:00;35.33;;;31.75;;
50575;SDS011;76633;45.642;12.198;2024-03-17T13:50:29;34.28;;;30.67;;
50575;SDS011;76633;45.642;12.198;2024-03-17T13:52:55;36.10;;;32.42;;
50575;SDS011;76633;45.642;12.198;2024-03-17T13:55:22;36.13;;;31.98;;
50575;SDS011;76633;45.642;12.198;2024-03-17T13:57:56;33.58;;;30.13;;
50575;SDS011;76633;45.642;12.198;2024-03-17T14:00:24;36.40;;;32.72;;
50575;SDS011;76633;45.642;12.198;2024-03-17T14:02:52;36.88;;;32.97;;
50575;SDS011;76633;45.642;12.198;2024-03-17T14:05:19;36.60;;;32.85;;
50575;SDS011;76633;45.642;12.198;2024-03-17T14:07:46;38.28;;;34.13;;
50575;SDS011;76633;45.642;12.198;2024-03-17T14:10:13;40.30;;;36.28;;
50575;SDS011;76633;45.642;12.198;2024-03-17T14:12:42;37.38;;;33.55;;
50575;SDS011;76633;45.642;12.198;2024-03-17T14:15:08;38.35;;;33.90;;
50575;SDS011;76633;45.642;12.198;2024-03-17T14:17:45;39.33;;;35.20;;
50575;SDS011;76633;45.642;12.198;2024-03-17T14:20:12;41.63;;;37.25;;
50575;SDS011;76633;45.642;12.198;2024-03-17T14:22:40;39.83;;;35.65;;
50575;SDS011;76633;45.642;12.198;2024-03-17T14:25:08;39.20;;;35.20;;
50575;SDS011;76633;45.642;12.198;2024-03-17T14:27:38;38.33;;;34.47;;
50575;SDS011;76633;45.642;12.198;2024-03-17T14:30:04;39.83;;;34.83;;
50575;SDS011;76633;45.642;12.198;2024-03-17T14:32:30;38.25;;;33.90;;
50575;SDS011;76633;45.642;12.198;2024-03-17T14:34:56;40.05;;;36.10;;
50575;SDS011;76633;45.642;12.198;2024-03-17T14:37:22;39.80;;;35.60;;
50575;SDS011;76633;45.642;12.198;2024-03-17T14:39:50;39.05;;;35.17;;
50575;SDS011;76633;45.642;12.198;2024-03-17T14:42:17;38.45;;;34.40;;
50575;SDS011;76633;45.642;12.198;2024-03-17T14:44:44;39.67;;;35.38;;
50575;SDS011;76633;45.642;12.198;2024-03-17T14:47:10;49.22;;;37.42;;
50575;SDS011;76633;45.642;12.198;2024-03-17T14:49:36;42.95;;;37.15;;
50575;SDS011;76633;45.642;12.198;2024-03-17T14:52:01;38.60;;;34.65;;
50575;SDS011;76633;45.642;12.198;2024-03-17T14:54:27;40.83;;;36.72;;
50575;SDS011;76633;45.642;12.198;2024-03-17T14:56:53;41.60;;;37.25;;
50575;SDS011;76633;45.642;12.198;2024-03-17T14:59:19;41.22;;;36.80;;